ADDS METAR Data INFO
IDs: Format: Raw Decoded Include TAF

Data at: 1924 UTC 19 Jul 2018

KCUH 191915Z AUTO 22003KT 10SM CLR 37/21 A2982 RMK AO2 T03710213
KCUH 191855Z AUTO 18006KT 37/21 A2982 RMK AO2 T03730211 PWINO
KCUH 190755Z AUTO 00000KT 10SM 24/23 A2988 RMK AO2 T02400232
KCUH 190735Z AUTO 00000KT 10SM 24/23 A2988 RMK AO2 T02400232
KCUH 190715Z AUTO 00000KT 10SM 24/23 A2989 RMK AO2 T02420232
KCUH 190655Z AUTO 00000KT 10SM 25/24 A2990 RMK AO2 T02480235
KCUH 190635Z AUTO 13004KT 10SM 25/24 A2990 RMK AO2 T02500235
KCUH 190615Z AUTO 00000KT 10SM 25/23 A2990 RMK AO2 T02450233
KCUH 190555Z AUTO 00000KT 10SM 25/23 A2990 RMK AO2 T02490233 10311 20238 403160230
KCUH 190535Z AUTO 00000KT 10SM 25/24 A2990 RMK AO2 T02520235
KCUH 190515Z AUTO 00000KT 10SM 26/24 A2990 RMK AO2 T02550235
KCUH 190455Z AUTO 00000KT 10SM 25/23 A2990 RMK AO2 T02490233
KCUH 190435Z AUTO 00000KT 10SM 24/23 A2990 RMK AO2 T02400230
KCUH 190415Z AUTO 00000KT 10SM 25/23 A2989 RMK AO2 T02460230
KCUH 190355Z AUTO 00000KT 10SM 26/23 A2989 RMK AO2 T02570234
KCUH 190335Z AUTO 00000KT 10SM 27/24 A2989 RMK AO2 T02690237
KCUH 190315Z AUTO 00000KT 10SM 27/24 A2989 RMK AO2 T02700238
KCUH 190255Z AUTO 00000KT 10SM 27/24 A2988 RMK AO2 T02710240
KCUH 190235Z AUTO 08003KT 10SM 27/24 A2987 RMK AO2 T02710236
KCUH 190215Z AUTO 00000KT 10SM 28/23 A2987 RMK AO2 T02810229
KCUH 190155Z AUTO 00000KT 10SM 29/23 A2987 RMK AO2 T02850228
KCUH 190135Z AUTO 00000KT 10SM 29/23 A2987 RMK AO2 T02910225
KCUH 190115Z AUTO 12003KT 10SM 30/22 A2988 RMK AO2 T02970220
KCUH 190055Z AUTO 17003KT 10SM 30/22 A2988 RMK AO2 T03010221
KCUH 190035Z AUTO 00000KT 10SM 31/22 A2988 RMK AO2 T03050215
KCUH 190015Z AUTO 16004KT 10SM 31/22 A2988 RMK AO2 T03100218
KCUH 182355Z AUTO 19006KT 10SM 31/23 A2988 RMK AO2 T03100226 10316 20261
KCUH 182335Z AUTO 20003KT 10SM 31/23 A2988 RMK AO2 T03120226
KCUH 182315Z AUTO 18004KT 10SM 32/23 A2988 RMK AO2 T03150230
KCUH 182255Z AUTO 18003KT 10SM 31/23 A2989 RMK AO2 T03130226
KCUH 182235Z AUTO 24003KT 10SM 31/23 A2989 RMK AO2 T03110231
KCUH 182215Z AUTO 21006KT 10SM 31/23 A2989 RMK AO2 T03120233
KCUH 182155Z AUTO 21005KT 10SM 31/24 A2990 RMK AO2 T03120236
KCUH 182135Z AUTO 17003KT 10SM 31/24 A2991 RMK AO2 T03130239
KCUH 182115Z AUTO 17003KT 10SM 30/23 A2992 RMK AO2 T02990234
KCUH 182055Z AUTO 00000KT 10SM 30/23 A2993 RMK AO2 T02980230
KCUH 182035Z AUTO 20005KT 10SM SCT020 30/24 A2994 RMK AO2 T03010239
KCUH 182015Z AUTO 13003KT 7SM CLR 30/24 A2994 RMK AO2 T02970238
KCUH 181955Z AUTO 18003KT 10SM SCT120 29/24 A2994 RMK AO2 T02850238
KCUH 181935Z AUTO 00000KT 10SM SCT120 28/24 A2995 RMK AO2 T02780240
KCUH 181915Z AUTO 16004KT 10SM SCT120 27/24 A2995 RMK AO2 T02730238
KCUH 181855Z AUTO 00000KT 10SM SCT120 27/24 A2995 RMK AO2 T02720236
KCUH 181835Z AUTO 00000KT 10SM CLR 27/24 A2995 RMK AO2 T02670236
KCUH 181815Z AUTO 00000KT 10SM CLR 27/24 A2996 RMK AO2 T02670235
KCUH 181755Z AUTO 04004KT 10SM SCT120 26/23 A2997 RMK AO2 T02600232 10260 20231
KCUH 181735Z AUTO 00000KT 10SM SCT120 26/23 A2997 RMK AO2 T02570232
KCUH 181715Z AUTO 05003KT 10SM SCT100 BKN120 26/23 A2997 RMK AO2 T02560234
KCUH 181655Z AUTO 08003KT 10SM OVC120 25/23 A2996 RMK AO2 T02540230
KCUH 181635Z AUTO 09003KT 10SM OVC110 25/23 A2996 RMK AO2 T02480229
KCUH 181615Z AUTO 09003KT 10SM BKN120 25/23 A2995 RMK AO2 T02490229
KCUH 181555Z AUTO 13004KT 10SM SCT008 SCT033 BKN120 25/23 A2995 RMK AO2 T02450227
KCUH 181535Z AUTO 12005KT 10SM SCT006 SCT070 SCT080 24/23 A2994 RMK AO2 T02430227
KCUH 181515Z AUTO 13006KT 10SM BKN006 BKN110 24/23 A2995 RMK AO2 T02410227
KCUH 181455Z AUTO 09004KT 10SM -RA SCT006 SCT070 BKN110 24/23 A2995 RMK AO2 T02370226
KCUH 181435Z AUTO 09005KT 10SM SCT006 SCT120 24/23 A2996 RMK AO2 T02370225
KCUH 181415Z AUTO 06005KT 10SM SCT006 24/23 A2996 RMK AO2 T02380225
KCUH 181355Z AUTO 06004KT 10SM CLR 24/23 A2997 RMK AO2 T02380225
KCUH 181335Z AUTO 06003KT 10SM SCT120 24/22 A2997 RMK AO2 LTG DSNT E T02350224
KCUH 181315Z AUTO 06004KT 10SM SCT120 24/22 A2997 RMK AO2 T02360223
KCUH 181255Z AUTO 00000KT 10SM CLR 24/22 A2997 RMK AO2 T02350224
KCUH 181235Z AUTO 00000KT 10SM SCT120 24/22 A2997 RMK AO2 T02350222
KCUH 181215Z AUTO 00000KT 10SM SCT120 23/22 A2997 RMK AO2 T02340221
KCUH 181155Z AUTO 00000KT 10SM SCT110 23/22 A2998 RMK AO2 LTG DSNT E 70010 T02320221 10277 20230
KCUH 181135Z AUTO 00000KT 10SM SCT120 23/22 A2998 RMK AO2 T02310220
KCUH 181115Z AUTO 08003KT 10SM SCT110 23/22 A2997 RMK AO2 T02310220
KCUH 181055Z AUTO 04004KT 10SM -DZ SCT110 23/22 A2997 RMK AO2 T02310221
KCUH 181035Z AUTO 02004KT 10SM SCT120 23/22 A2997 RMK AO2 T02340222
KCUH 181015Z AUTO 10003KT 10SM CLR 24/22 A2995 RMK AO2 T02350220
KCUH 180955Z AUTO 07003KT 10SM CLR 24/22 A2996 RMK AO2 T02350220
KCUH 180935Z AUTO 03003KT 10SM SCT120 23/22 A2998 RMK AO2 T02330220
KCUH 180915Z AUTO 03004KT 10SM BKN120 23/22 A2998 RMK AO2 T02340223
KCUH 180855Z AUTO 36006KT 10SM SCT110 24/22 A2998 RMK AO2 LTG DSNT NE T02360224
KCUH 180835Z AUTO 36007KT 10SM -RA OVC110 24/23 A2999 RMK AO2 LTG DSNT NE T02400228
KCUH 180815Z AUTO 02004KT 10SM -RA OVC110 24/23 A2999 RMK AO2 T02410232
KCUH 180755Z AUTO 01004KT 10SM -RA OVC110 25/23 A2999 RMK AO2 LTG DSNT N T02450232
KCUH 180735Z AUTO 33006KT 10SM -RA OVC110 25/23 A3000 RMK AO2 LTG DSNT N T02500230